sensor_id;sensor_type;location;lat;lon;timestamp;temperature;humidity
10386;DHT22;34307;51.332;12.334;2022-08-19T00:01:41;19.20;99.90
10386;DHT22;34307;51.332;12.334;2022-08-19T00:04:34;19.20;99.90
10386;DHT22;34307;51.332;12.334;2022-08-19T00:07:21;19.20;99.90
10386;DHT22;34307;51.332;12.334;2022-08-19T00:10:27;19.10;99.90
10386;DHT22;34307;51.332;12.334;2022-08-19T00:13:50;19.10;99.90
10386;DHT22;34307;51.332;12.334;2022-08-19T00:16:52;19.20;99.90
10386;DHT22;34307;51.332;12.334;2022-08-19T00:19:58;19.20;99.90
10386;DHT22;34307;51.332;12.334;2022-08-19T00:29:44;19.20;99.90
10386;DHT22;34307;51.332;12.334;2022-08-19T00:33:02;19.20;99.90
10386;DHT22;34307;51.332;12.334;2022-08-19T00:36:28;19.20;99.90
10386;DHT22;34307;51.332;12.334;2022-08-19T00:39:38;19.20;99.90
10386;DHT22;34307;51.332;12.334;2022-08-19T00:42:32;19.20;99.90
10386;DHT22;34307;51.332;12.334;2022-08-19T00:45:56;19.20;99.90
10386;DHT22;34307;51.332;12.334;2022-08-19T00:49:34;19.20;99.90
10386;DHT22;34307;51.332;12.334;2022-08-19T00:52:20;19.20;99.90
10386;DHT22;34307;51.332;12.334;2022-08-19T00:54:58;19.20;99.90
10386;DHT22;34307;51.332;12.334;2022-08-19T00:57:46;19.20;99.90
10386;DHT22;34307;51.332;12.334;2022-08-19T01:00:22;19.10;99.90
10386;DHT22;34307;51.332;12.334;2022-08-19T01:02:58;19.10;99.90
10386;DHT22;34307;51.332;12.334;2022-08-19T01:05:46;19.10;99.90
10386;DHT22;34307;51.332;12.334;2022-08-19T01:08:19;19.10;99.90
10386;DHT22;34307;51.332;12.334;2022-08-19T01:10:54;19.10;99.90
10386;DHT22;34307;51.332;12.334;2022-08-19T01:13:32;19.10;99.90
10386;DHT22;34307;51.332;12.334;2022-08-19T01:16:18;19.10;99.90
10386;DHT22;34307;51.332;12.334;2022-08-19T01:18:55;19.10;99.90
10386;DHT22;34307;51.332;12.334;2022-08-19T01:21:32;19.10;99.90
10386;DHT22;34307;51.332;12.334;2022-08-19T01:24:04;19.00;99.90
10386;DHT22;34307;51.332;12.334;2022-08-19T01:27:08;19.10;99.90
10386;DHT22;34307;51.332;12.334;2022-08-19T01:29:51;19.00;99.90
10386;DHT22;34307;51.332;12.334;2022-08-19T01:32:24;19.00;99.90
10386;DHT22;34307;51.332;12.334;2022-08-19T01:35:07;19.00;99.90
10386;DHT22;34307;51.332;12.334;2022-08-19T01:37:45;19.00;99.90
10386;DHT22;34307;51.332;12.334;2022-08-19T01:40:35;19.00;99.90
10386;DHT22;34307;51.332;12.334;2022-08-19T01:43:13;19.00;99.90
10386;DHT22;34307;51.332;12.334;2022-08-19T01:45:54;19.00;99.90
10386;DHT22;34307;51.332;12.334;2022-08-19T01:48:37;19.00;99.90
10386;DHT22;34307;51.332;12.334;2022-08-19T01:51:21;19.00;99.90
10386;DHT22;34307;51.332;12.334;2022-08-19T01:54:09;19.00;99.90
10386;DHT22;34307;51.332;12.334;2022-08-19T01:57:05;19.00;99.90
10386;DHT22;34307;51.332;12.334;2022-08-19T01:59:50;19.10;99.90
10386;DHT22;34307;51.332;12.334;2022-08-19T02:02:29;19.00;99.90
10386;DHT22;34307;51.332;12.334;2022-08-19T02:05:13;19.00;99.90
10386;DHT22;34307;51.332;12.334;2022-08-19T02:08:01;19.00;99.90
10386;DHT22;34307;51.332;12.334;2022-08-19T02:10:39;19.00;99.90
10386;DHT22;34307;51.332;12.334;2022-08-19T02:13:21;19.00;99.90
10386;DHT22;34307;51.332;12.334;2022-08-19T02:15:52;19.00;99.90
10386;DHT22;34307;51.332;12.334;2022-08-19T02:18:40;19.00;99.90
10386;DHT22;34307;51.332;12.334;2022-08-19T02:21:31;19.00;99.90
10386;DHT22;34307;51.332;12.334;2022-08-19T02:24:12;19.00;99.90
10386;DHT22;34307;51.332;12.334;2022-08-19T02:27:13;19.00;99.90
10386;DHT22;34307;51.332;12.334;2022-08-19T02:30:22;19.00;99.90
10386;DHT22;34307;51.332;12.334;2022-08-19T02:32:58;19.00;99.90
10386;DHT22;34307;51.332;12.334;2022-08-19T02:35:47;19.00;99.90
10386;DHT22;34307;51.332;12.334;2022-08-19T02:38:51;19.00;99.90
10386;DHT22;34307;51.332;12.334;2022-08-19T02:41:39;19.00;99.90
10386;DHT22;34307;51.332;12.334;2022-08-19T02:44:33;19.00;99.90
10386;DHT22;34307;51.332;12.334;2022-08-19T02:47:11;19.00;99.90
10386;DHT22;34307;51.332;12.334;2022-08-19T02:49:50;19.00;99.90
10386;DHT22;34307;51.332;12.334;2022-08-19T02:52:36;19.10;99.90
10386;DHT22;34307;51.332;12.334;2022-08-19T02:55:11;19.00;99.90
10386;DHT22;34307;51.332;12.334;2022-08-19T02:57:56;19.00;99.90
10386;DHT22;34307;51.332;12.334;2022-08-19T03:01:00;19.00;99.90
10386;DHT22;34307;51.332;12.334;2022-08-19T03:03:53;19.10;99.90
10386;DHT22;34307;51.332;12.334;2022-08-19T03:06:42;19.10;99.90
10386;DHT22;34307;51.332;12.334;2022-08-19T03:09:39;19.10;99.90
10386;DHT22;34307;51.332;12.334;2022-08-19T03:12:13;19.10;99.90
10386;DHT22;34307;51.332;12.334;2022-08-19T03:14:46;19.10;99.90
10386;DHT22;34307;51.332;12.334;2022-08-19T03:17:18;19.10;99.90
10386;DHT22;34307;51.332;12.334;2022-08-19T03:19:59;19.10;99.90
10386;DHT22;34307;51.332;12.334;2022-08-19T03:22:41;19.10;99.90
10386;DHT22;34307;51.332;12.334;2022-08-19T03:25:24;19.10;99.90
10386;DHT22;34307;51.332;12.334;2022-08-19T03:28:03;19.10;99.90
10386;DHT22;34307;51.332;12.334;2022-08-19T03:30:38;19.10;99.90
10386;DHT22;34307;51.332;12.334;2022-08-19T03:33:26;19.10;99.90
10386;DHT22;34307;51.332;12.334;2022-08-19T03:36:17;19.10;99.90
10386;DHT22;34307;51.332;12.334;2022-08-19T03:39:19;19.10;99.90
10386;DHT22;34307;51.332;12.334;2022-08-19T03:42:19;19.10;99.90
10386;DHT22;34307;51.332;12.334;2022-08-19T03:45:29;19.20;99.90
10386;DHT22;34307;51.332;12.334;2022-08-19T03:48:19;19.10;99.90
10386;DHT22;34307;51.332;12.334;2022-08-19T03:56:07;19.10;99.90
10386;DHT22;34307;51.332;12.334;2022-08-19T03:58:32;19.10;99.90
10386;DHT22;34307;51.332;12.334;2022-08-19T04:08:06;19.00;99.90
10386;DHT22;34307;51.332;12.334;2022-08-19T04:11:26;19.10;99.90
10386;DHT22;34307;51.332;12.334;2022-08-19T04:14:42;19.00;99.90
10386;DHT22;34307;51.332;12.334;2022-08-19T04:17:59;19.00;99.90
10386;DHT22;34307;51.332;12.334;2022-08-19T04:21:02;19.00;99.90
10386;DHT22;34307;51.332;12.334;2022-08-19T04:28:02;19.10;99.90
10386;DHT22;34307;51.332;12.334;2022-08-19T04:31:04;19.10;99.90
10386;DHT22;34307;51.332;12.334;2022-08-19T04:33:53;19.10;99.90
10386;DHT22;34307;51.332;12.334;2022-08-19T04:37:25;19.10;99.90
10386;DHT22;34307;51.332;12.334;2022-08-19T04:40:34;19.10;99.90
10386;DHT22;34307;51.332;12.334;2022-08-19T04:43:55;19.10;99.90
10386;DHT22;34307;51.332;12.334;2022-08-19T04:47:02;19.10;99.90
10386;DHT22;34307;51.332;12.334;2022-08-19T04:54:18;19.20;99.90
10386;DHT22;34307;51.332;12.334;2022-08-19T05:01:21;19.20;99.90
10386;DHT22;34307;51.332;12.334;2022-08-19T05:08:38;19.20;99.90
10386;DHT22;34307;51.332;12.334;2022-08-19T05:12:14;19.20;99.90
10386;DHT22;34307;51.332;12.334;2022-08-19T05:16:17;19.20;99.90
10386;DHT22;34307;51.332;12.334;2022-08-19T05:39:56;19.30;99.90
10386;DHT22;34307;51.332;12.334;2022-08-19T05:43:40;19.30;99.90
10386;DHT22;34307;51.332;12.334;2022-08-19T05:50:51;19.30;99.90
10386;DHT22;34307;51.332;12.334;2022-08-19T05:54:33;19.30;99.90
10386;DHT22;34307;51.332;12.334;2022-08-19T06:14:19;19.30;99.90
10386;DHT22;34307;51.332;12.334;2022-08-19T06:19:56;19.40;99.90
10386;DHT22;34307;51.332;12.334;2022-08-19T06:23:31;19.40;99.90
10386;DHT22;34307;51.332;12.334;2022-08-19T06:31:13;19.40;99.90
10386;DHT22;34307;51.332;12.334;2022-08-19T07:12:17;19.30;99.90
10386;DHT22;34307;51.332;12.334;2022-08-19T07:20:00;19.20;99.90
10386;DHT22;34307;51.332;12.334;2022-08-19T07:58:13;19.20;99.90
10386;DHT22;34307;51.332;12.334;2022-08-19T08:59:15;19.20;99.90
10386;DHT22;34307;51.332;12.334;2022-08-19T09:02:47;19.20;99.90
10386;DHT22;34307;51.332;12.334;2022-08-19T09:14:45;19.20;99.90
10386;DHT22;34307;51.332;12.334;2022-08-19T09:21:25;19.50;99.90
10386;DHT22;34307;51.332;12.334;2022-08-19T09:33:04;19.80;99.90
10386;DHT22;34307;51.332;12.334;2022-08-19T10:11:44;19.60;99.90
10386;DHT22;34307;51.332;12.334;2022-08-19T10:22:36;19.90;99.90
10386;DHT22;34307;51.332;12.334;2022-08-19T10:26:48;20.20;99.90
10386;DHT22;34307;51.332;12.334;2022-08-19T10:30:28;20.20;99.90
10386;DHT22;34307;51.332;12.334;2022-08-19T13:44:31;22.50;99.90
10386;DHT22;34307;51.332;12.334;2022-08-19T13:52:02;22.30;99.90
10386;DHT22;34307;51.332;12.334;2022-08-19T15:18:06;22.20;99.90
10386;DHT22;34307;51.332;12.334;2022-08-19T15:25:21;21.30;99.90
10386;DHT22;34307;51.332;12.334;2022-08-19T15:29:03;21.50;99.90
10386;DHT22;34307;51.332;12.334;2022-08-19T15:51:05;21.40;99.90
10386;DHT22;34307;51.332;12.334;2022-08-19T16:04:14;21.80;99.90
10386;DHT22;34307;51.332;12.334;2022-08-19T17:14:20;20.80;99.90
10386;DHT22;34307;51.332;12.334;2022-08-19T17:18:14;20.80;99.90
10386;DHT22;34307;51.332;12.334;2022-08-19T17:21:51;20.80;99.90
10386;DHT22;34307;51.332;12.334;2022-08-19T18:30:15;20.40;99.90
10386;DHT22;34307;51.332;12.334;2022-08-19T19:23:46;20.10;99.90
10386;DHT22;34307;51.332;12.334;2022-08-19T22:18:18;19.70;99.90
10386;DHT22;34307;51.332;12.334;2022-08-19T22:21:28;19.40;99.90
10386;DHT22;34307;51.332;12.334;2022-08-19T22:24:42;19.30;99.90
10386;DHT22;34307;51.332;12.334;2022-08-19T22:27:23;19.20;99.90
10386;DHT22;34307;51.332;12.334;2022-08-19T22:30:12;19.10;99.90
10386;DHT22;34307;51.332;12.334;2022-08-19T22:33:18;19.00;99.90
10386;DHT22;34307;51.332;12.334;2022-08-19T22:36:00;18.90;99.90
10386;DHT22;34307;51.332;12.334;2022-08-19T22:39:15;18.80;99.90
10386;DHT22;34307;51.332;12.334;2022-08-19T22:42:46;18.70;99.90
10386;DHT22;34307;51.332;12.334;2022-08-19T22:45:29;18.70;99.90
10386;DHT22;34307;51.332;12.334;2022-08-19T22:48:12;18.70;99.90
10386;DHT22;34307;51.332;12.334;2022-08-19T22:51:02;18.60;99.90
10386;DHT22;34307;51.332;12.334;2022-08-19T22:54:14;18.70;99.90
10386;DHT22;34307;51.332;12.334;2022-08-19T22:56:53;18.60;99.90
10386;DHT22;34307;51.332;12.334;2022-08-19T22:59:55;18.60;99.90
10386;DHT22;34307;51.332;12.334;2022-08-19T23:02:37;18.50;99.90
10386;DHT22;34307;51.332;12.334;2022-08-19T23:06:00;18.50;99.90
10386;DHT22;34307;51.332;12.334;2022-08-19T23:08:41;18.50;99.90
10386;DHT22;34307;51.332;12.334;2022-08-19T23:11:27;18.50;99.90
10386;DHT22;34307;51.332;12.334;2022-08-19T23:14:12;18.50;99.90
10386;DHT22;34307;51.332;12.334;2022-08-19T23:16:48;18.50;99.90
10386;DHT22;34307;51.332;12.334;2022-08-19T23:19:26;18.50;99.90
10386;DHT22;34307;51.332;12.334;2022-08-19T23:22:11;18.50;99.90
10386;DHT22;34307;51.332;12.334;2022-08-19T23:25:27;18.50;99.90
10386;DHT22;34307;51.332;12.334;2022-08-19T23:28:15;18.50;99.90
10386;DHT22;34307;51.332;12.334;2022-08-19T23:31:24;18.50;99.90
10386;DHT22;34307;51.332;12.334;2022-08-19T23:33:57;18.50;99.90
10386;DHT22;34307;51.332;12.334;2022-08-19T23:36:56;18.50;99.90
10386;DHT22;34307;51.332;12.334;2022-08-19T23:39:33;18.40;99.90
10386;DHT22;34307;51.332;12.334;2022-08-19T23:42:29;18.50;99.90
10386;DHT22;34307;51.332;12.334;2022-08-19T23:45:08;18.50;99.90
10386;DHT22;34307;51.332;12.334;2022-08-19T23:47:59;18.40;99.90
10386;DHT22;34307;51.332;12.334;2022-08-19T23:50:51;18.40;99.90
10386;DHT22;34307;51.332;12.334;2022-08-19T23:53:35;18.40;99.90
10386;DHT22;34307;51.332;12.334;2022-08-19T23:56:17;18.40;99.90
10386;DHT22;34307;51.332;12.334;2022-08-19T23:59:05;18.40;99.90
